sensor_id;sensor_type;location;lat;lon;timestamp;P1;durP1;ratioP1;P2;durP2;ratioP2
74926;SDS011;63488;48.092;-1.640;2023-08-30T00:00:50;6.60;;;3.20;;
74926;SDS011;63488;48.092;-1.640;2023-08-30T00:03:15;6.75;;;3.20;;
74926;SDS011;63488;48.092;-1.640;2023-08-30T00:05:40;7.43;;;3.63;;
74926;SDS011;63488;48.092;-1.640;2023-08-30T00:08:06;6.72;;;3.38;;
74926;SDS011;63488;48.092;-1.640;2023-08-30T00:10:31;6.22;;;3.40;;
74926;SDS011;63488;48.092;-1.640;2023-08-30T00:12:57;7.18;;;3.58;;
74926;SDS011;63488;48.092;-1.640;2023-08-30T00:15:22;8.15;;;3.80;;
74926;SDS011;63488;48.092;-1.640;2023-08-30T00:17:47;6.05;;;3.40;;
74926;SDS011;63488;48.092;-1.640;2023-08-30T00:20:13;8.77;;;3.60;;
74926;SDS011;63488;48.092;-1.640;2023-08-30T00:22:38;6.25;;;3.20;;
74926;SDS011;63488;48.092;-1.640;2023-08-30T00:25:04;6.57;;;3.47;;
74926;SDS011;63488;48.092;-1.640;2023-08-30T00:27:30;7.50;;;3.50;;
74926;SDS011;63488;48.092;-1.640;2023-08-30T00:29:55;6.75;;;3.40;;
74926;SDS011;63488;48.092;-1.640;2023-08-30T00:32:21;7.15;;;3.60;;
74926;SDS011;63488;48.092;-1.640;2023-08-30T00:34:49;10.02;;;3.85;;
74926;SDS011;63488;48.092;-1.640;2023-08-30T00:37:14;9.85;;;3.53;;
74926;SDS011;63488;48.092;-1.640;2023-08-30T00:39:40;5.72;;;3.33;;
74926;SDS011;63488;48.092;-1.640;2023-08-30T00:42:05;8.52;;;3.42;;
74926;SDS011;63488;48.092;-1.640;2023-08-30T00:44:32;7.55;;;3.30;;
74926;SDS011;63488;48.092;-1.640;2023-08-30T00:46:58;9.82;;;3.40;;
74926;SDS011;63488;48.092;-1.640;2023-08-30T00:49:24;5.88;;;3.15;;
74926;SDS011;63488;48.092;-1.640;2023-08-30T00:51:49;7.03;;;3.22;;
74926;SDS011;63488;48.092;-1.640;2023-08-30T00:54:15;7.72;;;3.38;;
74926;SDS011;63488;48.092;-1.640;2023-08-30T00:56:41;5.72;;;3.33;;
74926;SDS011;63488;48.092;-1.640;2023-08-30T00:59:06;7.15;;;3.55;;
74926;SDS011;63488;48.092;-1.640;2023-08-30T01:01:31;7.05;;;3.03;;
74926;SDS011;63488;48.092;-1.640;2023-08-30T01:03:57;5.68;;;3.20;;
74926;SDS011;63488;48.092;-1.640;2023-08-30T01:06:23;8.13;;;3.67;;
74926;SDS011;63488;48.092;-1.640;2023-08-30T01:08:48;8.48;;;3.35;;
74926;SDS011;63488;48.092;-1.640;2023-08-30T01:13:50;7.45;;;3.70;;
74926;SDS011;63488;48.092;-1.640;2023-08-30T01:16:18;6.17;;;3.13;;
74926;SDS011;63488;48.092;-1.640;2023-08-30T01:18:45;6.40;;;3.55;;
74926;SDS011;63488;48.092;-1.640;2023-08-30T01:21:12;5.97;;;3.33;;
74926;SDS011;63488;48.092;-1.640;2023-08-30T01:23:56;8.82;;;3.40;;
74926;SDS011;63488;48.092;-1.640;2023-08-30T01:26:29;6.75;;;3.63;;
74926;SDS011;63488;48.092;-1.640;2023-08-30T01:28:56;7.55;;;3.53;;
74926;SDS011;63488;48.092;-1.640;2023-08-30T01:31:24;6.82;;;3.50;;
74926;SDS011;63488;48.092;-1.640;2023-08-30T01:33:50;7.88;;;3.25;;
74926;SDS011;63488;48.092;-1.640;2023-08-30T01:36:16;7.32;;;3.40;;
74926;SDS011;63488;48.092;-1.640;2023-08-30T01:38:41;6.90;;;3.13;;
74926;SDS011;63488;48.092;-1.640;2023-08-30T01:41:07;7.15;;;3.50;;
74926;SDS011;63488;48.092;-1.640;2023-08-30T01:43:32;5.55;;;3.40;;
74926;SDS011;63488;48.092;-1.640;2023-08-30T01:45:58;5.68;;;3.13;;
74926;SDS011;63488;48.092;-1.640;2023-08-30T01:48:25;6.47;;;3.35;;
74926;SDS011;63488;48.092;-1.640;2023-08-30T01:50:52;6.50;;;3.10;;
74926;SDS011;63488;48.092;-1.640;2023-08-30T01:53:19;7.18;;;3.22;;
74926;SDS011;63488;48.092;-1.640;2023-08-30T01:55:45;5.97;;;2.83;;
74926;SDS011;63488;48.092;-1.640;2023-08-30T01:58:11;3.92;;;2.40;;
74926;SDS011;63488;48.092;-1.640;2023-08-30T02:00:36;4.72;;;2.00;;
74926;SDS011;63488;48.092;-1.640;2023-08-30T02:03:11;4.20;;;1.70;;
74926;SDS011;63488;48.092;-1.640;2023-08-30T02:05:39;4.63;;;2.00;;
74926;SDS011;63488;48.092;-1.640;2023-08-30T02:08:05;4.25;;;1.70;;
74926;SDS011;63488;48.092;-1.640;2023-08-30T02:10:35;2.50;;;1.20;;
74926;SDS011;63488;48.092;-1.640;2023-08-30T02:13:03;3.53;;;1.50;;
74926;SDS011;63488;48.092;-1.640;2023-08-30T02:15:29;4.07;;;1.25;;
74926;SDS011;63488;48.092;-1.640;2023-08-30T02:17:55;3.65;;;1.20;;
74926;SDS011;63488;48.092;-1.640;2023-08-30T02:20:21;3.60;;;1.40;;
74926;SDS011;63488;48.092;-1.640;2023-08-30T02:22:46;4.68;;;1.20;;
74926;SDS011;63488;48.092;-1.640;2023-08-30T02:25:12;4.35;;;0.93;;
74926;SDS011;63488;48.092;-1.640;2023-08-30T02:27:37;3.05;;;0.90;;
74926;SDS011;63488;48.092;-1.640;2023-08-30T02:30:03;1.67;;;0.65;;
74926;SDS011;63488;48.092;-1.640;2023-08-30T02:32:28;3.60;;;0.70;;
74926;SDS011;63488;48.092;-1.640;2023-08-30T02:34:55;2.25;;;0.90;;
74926;SDS011;63488;48.092;-1.640;2023-08-30T02:37:21;3.50;;;0.90;;
74926;SDS011;63488;48.092;-1.640;2023-08-30T02:39:46;1.77;;;0.80;;
74926;SDS011;63488;48.092;-1.640;2023-08-30T02:42:12;2.75;;;0.98;;
74926;SDS011;63488;48.092;-1.640;2023-08-30T02:44:37;2.35;;;0.70;;
74926;SDS011;63488;48.092;-1.640;2023-08-30T02:47:02;1.73;;;0.77;;
74926;SDS011;63488;48.092;-1.640;2023-08-30T02:49:28;2.47;;;0.75;;
74926;SDS011;63488;48.092;-1.640;2023-08-30T02:51:53;3.63;;;0.85;;
74926;SDS011;63488;48.092;-1.640;2023-08-30T02:54:19;1.42;;;0.70;;
74926;SDS011;63488;48.092;-1.640;2023-08-30T02:56:44;1.52;;;0.50;;
74926;SDS011;63488;48.092;-1.640;2023-08-30T02:59:10;2.15;;;0.82;;
74926;SDS011;63488;48.092;-1.640;2023-08-30T03:01:36;3.38;;;0.70;;
74926;SDS011;63488;48.092;-1.640;2023-08-30T03:04:01;5.18;;;0.90;;
74926;SDS011;63488;48.092;-1.640;2023-08-30T03:06:28;3.08;;;0.80;;
74926;SDS011;63488;48.092;-1.640;2023-08-30T03:08:53;4.25;;;0.90;;
74926;SDS011;63488;48.092;-1.640;2023-08-30T03:11:19;2.83;;;0.93;;
74926;SDS011;63488;48.092;-1.640;2023-08-30T03:13:44;1.73;;;0.82;;
74926;SDS011;63488;48.092;-1.640;2023-08-30T03:16:13;1.95;;;0.98;;
74926;SDS011;63488;48.092;-1.640;2023-08-30T03:18:39;2.38;;;0.90;;
74926;SDS011;63488;48.092;-1.640;2023-08-30T03:21:05;4.93;;;0.90;;
74926;SDS011;63488;48.092;-1.640;2023-08-30T03:23:31;3.13;;;0.90;;
74926;SDS011;63488;48.092;-1.640;2023-08-30T03:25:57;3.83;;;0.88;;
74926;SDS011;63488;48.092;-1.640;2023-08-30T03:28:22;2.22;;;1.00;;
74926;SDS011;63488;48.092;-1.640;2023-08-30T03:30:47;2.28;;;0.90;;
74926;SDS011;63488;48.092;-1.640;2023-08-30T03:33:13;3.17;;;0.80;;
74926;SDS011;63488;48.092;-1.640;2023-08-30T03:35:38;1.65;;;0.90;;
74926;SDS011;63488;48.092;-1.640;2023-08-30T03:38:03;4.05;;;0.98;;
74926;SDS011;63488;48.092;-1.640;2023-08-30T03:40:29;1.55;;;0.70;;
74926;SDS011;63488;48.092;-1.640;2023-08-30T03:42:55;4.05;;;0.75;;
74926;SDS011;63488;48.092;-1.640;2023-08-30T03:45:20;1.77;;;0.90;;
74926;SDS011;63488;48.092;-1.640;2023-08-30T03:47:45;4.90;;;1.05;;
74926;SDS011;63488;48.092;-1.640;2023-08-30T03:50:11;3.08;;;1.00;;
74926;SDS011;63488;48.092;-1.640;2023-08-30T03:52:36;3.72;;;0.90;;
74926;SDS011;63488;48.092;-1.640;2023-08-30T03:55:01;4.95;;;1.27;;
74926;SDS011;63488;48.092;-1.640;2023-08-30T03:57:27;3.03;;;1.20;;
74926;SDS011;63488;48.092;-1.640;2023-08-30T03:59:52;4.78;;;0.98;;
74926;SDS011;63488;48.092;-1.640;2023-08-30T04:02:18;2.80;;;1.10;;
74926;SDS011;63488;48.092;-1.640;2023-08-30T04:04:43;3.22;;;1.10;;
74926;SDS011;63488;48.092;-1.640;2023-08-30T04:07:11;1.88;;;0.90;;
74926;SDS011;63488;48.092;-1.640;2023-08-30T04:09:36;3.78;;;0.90;;
74926;SDS011;63488;48.092;-1.640;2023-08-30T04:12:02;2.28;;;0.90;;
74926;SDS011;63488;48.092;-1.640;2023-08-30T04:14:29;1.98;;;1.00;;
74926;SDS011;63488;48.092;-1.640;2023-08-30T04:16:55;2.30;;;1.02;;
74926;SDS011;63488;48.092;-1.640;2023-08-30T04:19:20;3.22;;;1.20;;
74926;SDS011;63488;48.092;-1.640;2023-08-30T04:21:45;3.38;;;1.05;;
74926;SDS011;63488;48.092;-1.640;2023-08-30T04:24:11;2.58;;;1.00;;
74926;SDS011;63488;48.092;-1.640;2023-08-30T04:26:36;3.42;;;1.27;;
74926;SDS011;63488;48.092;-1.640;2023-08-30T04:29:02;2.58;;;1.10;;
74926;SDS011;63488;48.092;-1.640;2023-08-30T04:31:28;3.45;;;0.80;;
74926;SDS011;63488;48.092;-1.640;2023-08-30T04:33:54;3.25;;;1.15;;
74926;SDS011;63488;48.092;-1.640;2023-08-30T04:36:20;5.22;;;1.33;;
74926;SDS011;63488;48.092;-1.640;2023-08-30T04:38:45;2.05;;;1.00;;
74926;SDS011;63488;48.092;-1.640;2023-08-30T04:41:11;5.25;;;1.20;;
74926;SDS011;63488;48.092;-1.640;2023-08-30T04:43:36;1.63;;;0.80;;
74926;SDS011;63488;48.092;-1.640;2023-08-30T04:46:02;2.90;;;1.10;;
74926;SDS011;63488;48.092;-1.640;2023-08-30T04:48:27;3.08;;;1.00;;
74926;SDS011;63488;48.092;-1.640;2023-08-30T04:51:00;3.63;;;1.17;;
74926;SDS011;63488;48.092;-1.640;2023-08-30T04:53:25;2.95;;;0.70;;
74926;SDS011;63488;48.092;-1.640;2023-08-30T04:55:51;2.35;;;1.00;;
74926;SDS011;63488;48.092;-1.640;2023-08-30T04:58:16;2.85;;;1.20;;
74926;SDS011;63488;48.092;-1.640;2023-08-30T05:00:41;3.45;;;1.30;;
74926;SDS011;63488;48.092;-1.640;2023-08-30T05:03:07;5.75;;;1.17;;
74926;SDS011;63488;48.092;-1.640;2023-08-30T05:05:32;2.72;;;1.00;;
74926;SDS011;63488;48.092;-1.640;2023-08-30T05:07:57;2.33;;;1.10;;
74926;SDS011;63488;48.092;-1.640;2023-08-30T05:10:23;3.25;;;0.93;;
74926;SDS011;63488;48.092;-1.640;2023-08-30T05:12:48;3.38;;;1.05;;
74926;SDS011;63488;48.092;-1.640;2023-08-30T05:15:17;5.28;;;1.02;;
74926;SDS011;63488;48.092;-1.640;2023-08-30T05:17:42;2.95;;;1.15;;
74926;SDS011;63488;48.092;-1.640;2023-08-30T05:20:08;3.67;;;1.05;;
74926;SDS011;63488;48.092;-1.640;2023-08-30T05:22:33;3.92;;;1.00;;
74926;SDS011;63488;48.092;-1.640;2023-08-30T05:24:58;2.63;;;0.90;;
74926;SDS011;63488;48.092;-1.640;2023-08-30T05:27:24;3.55;;;1.10;;
74926;SDS011;63488;48.092;-1.640;2023-08-30T05:29:49;1.88;;;0.95;;
74926;SDS011;63488;48.092;-1.640;2023-08-30T05:32:14;3.35;;;1.05;;
74926;SDS011;63488;48.092;-1.640;2023-08-30T05:34:40;3.85;;;1.02;;
74926;SDS011;63488;48.092;-1.640;2023-08-30T05:37:05;6.20;;;1.42;;
74926;SDS011;63488;48.092;-1.640;2023-08-30T05:39:30;3.30;;;1.10;;
74926;SDS011;63488;48.092;-1.640;2023-08-30T05:41:56;4.72;;;1.30;;
74926;SDS011;63488;48.092;-1.640;2023-08-30T05:44:21;7.05;;;1.48;;
74926;SDS011;63488;48.092;-1.640;2023-08-30T05:46:47;4.72;;;1.40;;
74926;SDS011;63488;48.092;-1.640;2023-08-30T05:49:12;4.75;;;1.40;;
74926;SDS011;63488;48.092;-1.640;2023-08-30T05:51:37;3.90;;;1.30;;
74926;SDS011;63488;48.092;-1.640;2023-08-30T05:54:03;5.10;;;1.20;;
74926;SDS011;63488;48.092;-1.640;2023-08-30T05:56:28;4.00;;;1.45;;
74926;SDS011;63488;48.092;-1.640;2023-08-30T05:58:54;5.43;;;1.40;;
74926;SDS011;63488;48.092;-1.640;2023-08-30T06:01:19;5.15;;;1.35;;
74926;SDS011;63488;48.092;-1.640;2023-08-30T06:03:45;4.72;;;1.30;;
74926;SDS011;63488;48.092;-1.640;2023-08-30T06:06:11;4.22;;;1.50;;
74926;SDS011;63488;48.092;-1.640;2023-08-30T06:08:36;6.30;;;1.58;;
74926;SDS011;63488;48.092;-1.640;2023-08-30T06:11:01;3.55;;;1.30;;
74926;SDS011;63488;48.092;-1.640;2023-08-30T06:13:27;7.57;;;1.45;;
74926;SDS011;63488;48.092;-1.640;2023-08-30T06:15:53;4.10;;;1.10;;
74926;SDS011;63488;48.092;-1.640;2023-08-30T06:18:18;5.50;;;1.48;;
74926;SDS011;63488;48.092;-1.640;2023-08-30T06:20:44;6.13;;;1.60;;
74926;SDS011;63488;48.092;-1.640;2023-08-30T06:23:09;7.35;;;1.85;;
74926;SDS011;63488;48.092;-1.640;2023-08-30T06:25:35;7.68;;;1.40;;
74926;SDS011;63488;48.092;-1.640;2023-08-30T06:28:00;6.95;;;1.60;;
74926;SDS011;63488;48.092;-1.640;2023-08-30T06:30:26;5.63;;;1.60;;
74926;SDS011;63488;48.092;-1.640;2023-08-30T06:32:52;3.30;;;1.25;;
74926;SDS011;63488;48.092;-1.640;2023-08-30T06:35:17;6.30;;;1.70;;
74926;SDS011;63488;48.092;-1.640;2023-08-30T06:37:42;3.00;;;1.35;;
74926;SDS011;63488;48.092;-1.640;2023-08-30T06:40:08;4.43;;;1.35;;
74926;SDS011;63488;48.092;-1.640;2023-08-30T06:42:33;7.03;;;1.45;;
74926;SDS011;63488;48.092;-1.640;2023-08-30T06:44:59;6.00;;;1.42;;
74926;SDS011;63488;48.092;-1.640;2023-08-30T06:47:24;5.10;;;1.52;;
74926;SDS011;63488;48.092;-1.640;2023-08-30T06:49:49;7.22;;;1.70;;
74926;SDS011;63488;48.092;-1.640;2023-08-30T06:52:15;4.20;;;1.60;;
74926;SDS011;63488;48.092;-1.640;2023-08-30T06:54:40;5.78;;;1.48;;
74926;SDS011;63488;48.092;-1.640;2023-08-30T06:57:05;5.13;;;1.50;;
74926;SDS011;63488;48.092;-1.640;2023-08-30T06:59:32;5.72;;;1.90;;
74926;SDS011;63488;48.092;-1.640;2023-08-30T07:01:57;5.03;;;1.80;;
74926;SDS011;63488;48.092;-1.640;2023-08-30T07:04:23;6.75;;;1.60;;
74926;SDS011;63488;48.092;-1.640;2023-08-30T07:06:48;6.10;;;1.60;;
74926;SDS011;63488;48.092;-1.640;2023-08-30T07:09:14;7.55;;;1.65;;
74926;SDS011;63488;48.092;-1.640;2023-08-30T07:11:41;6.57;;;1.77;;
74926;SDS011;63488;48.092;-1.640;2023-08-30T07:14:07;7.00;;;1.65;;
74926;SDS011;63488;48.092;-1.640;2023-08-30T07:16:32;5.40;;;1.52;;
74926;SDS011;63488;48.092;-1.640;2023-08-30T07:18:58;7.78;;;1.50;;
74926;SDS011;63488;48.092;-1.640;2023-08-30T07:21:23;7.63;;;2.00;;
74926;SDS011;63488;48.092;-1.640;2023-08-30T07:23:49;6.55;;;1.70;;
74926;SDS011;63488;48.092;-1.640;2023-08-30T07:26:14;5.65;;;1.50;;
74926;SDS011;63488;48.092;-1.640;2023-08-30T07:28:39;7.75;;;1.60;;
74926;SDS011;63488;48.092;-1.640;2023-08-30T07:31:05;6.32;;;1.45;;
74926;SDS011;63488;48.092;-1.640;2023-08-30T07:33:30;6.03;;;1.80;;
74926;SDS011;63488;48.092;-1.640;2023-08-30T07:35:55;7.20;;;1.50;;
74926;SDS011;63488;48.092;-1.640;2023-08-30T07:38:21;4.40;;;1.80;;
74926;SDS011;63488;48.092;-1.640;2023-08-30T07:40:46;7.15;;;1.50;;
74926;SDS011;63488;48.092;-1.640;2023-08-30T07:43:11;4.90;;;1.70;;
74926;SDS011;63488;48.092;-1.640;2023-08-30T07:45:37;4.78;;;1.35;;
74926;SDS011;63488;48.092;-1.640;2023-08-30T07:48:02;5.13;;;1.58;;
74926;SDS011;63488;48.092;-1.640;2023-08-30T07:50:28;6.75;;;1.70;;
74926;SDS011;63488;48.092;-1.640;2023-08-30T07:52:53;4.28;;;1.52;;
74926;SDS011;63488;48.092;-1.640;2023-08-30T07:55:18;3.83;;;1.40;;
74926;SDS011;63488;48.092;-1.640;2023-08-30T07:57:43;5.22;;;1.50;;
74926;SDS011;63488;48.092;-1.640;2023-08-30T08:00:09;5.38;;;1.77;;
74926;SDS011;63488;48.092;-1.640;2023-08-30T08:02:34;8.25;;;2.00;;
74926;SDS011;63488;48.092;-1.640;2023-08-30T08:05:01;4.53;;;1.50;;
74926;SDS011;63488;48.092;-1.640;2023-08-30T08:07:28;6.20;;;1.70;;
74926;SDS011;63488;48.092;-1.640;2023-08-30T08:09:56;5.65;;;1.63;;
74926;SDS011;63488;48.092;-1.640;2023-08-30T08:12:23;5.68;;;1.52;;
74926;SDS011;63488;48.092;-1.640;2023-08-30T08:14:49;4.80;;;1.20;;
74926;SDS011;63488;48.092;-1.640;2023-08-30T08:17:14;5.53;;;1.52;;
74926;SDS011;63488;48.092;-1.640;2023-08-30T08:19:40;4.80;;;1.42;;
74926;SDS011;63488;48.092;-1.640;2023-08-30T08:22:07;5.20;;;1.35;;
74926;SDS011;63488;48.092;-1.640;2023-08-30T08:24:33;5.65;;;1.42;;
74926;SDS011;63488;48.092;-1.640;2023-08-30T08:26:59;6.63;;;1.63;;
74926;SDS011;63488;48.092;-1.640;2023-08-30T08:29:26;5.95;;;1.45;;
74926;SDS011;63488;48.092;-1.640;2023-08-30T08:31:52;5.38;;;1.70;;
74926;SDS011;63488;48.092;-1.640;2023-08-30T08:34:17;2.47;;;1.17;;
74926;SDS011;63488;48.092;-1.640;2023-08-30T08:36:42;5.22;;;1.55;;
74926;SDS011;63488;48.092;-1.640;2023-08-30T08:39:08;5.13;;;1.33;;
74926;SDS011;63488;48.092;-1.640;2023-08-30T08:41:35;3.28;;;1.27;;
74926;SDS011;63488;48.092;-1.640;2023-08-30T08:44:00;4.25;;;1.15;;
74926;SDS011;63488;48.092;-1.640;2023-08-30T08:46:27;3.88;;;1.20;;
74926;SDS011;63488;48.092;-1.640;2023-08-30T08:48:54;2.33;;;1.02;;
74926;SDS011;63488;48.092;-1.640;2023-08-30T08:51:21;4.25;;;1.30;;
74926;SDS011;63488;48.092;-1.640;2023-08-30T08:53:48;5.93;;;1.80;;
74926;SDS011;63488;48.092;-1.640;2023-08-30T08:56:17;2.95;;;1.38;;
74926;SDS011;63488;48.092;-1.640;2023-08-30T08:58:43;7.93;;;1.58;;
74926;SDS011;63488;48.092;-1.640;2023-08-30T09:01:09;3.83;;;1.52;;
74926;SDS011;63488;48.092;-1.640;2023-08-30T09:03:34;5.32;;;2.00;;
74926;SDS011;63488;48.092;-1.640;2023-08-30T09:06:01;4.22;;;1.33;;
74926;SDS011;63488;48.092;-1.640;2023-08-30T09:08:26;5.72;;;1.58;;
74926;SDS011;63488;48.092;-1.640;2023-08-30T09:10:51;8.00;;;1.48;;
74926;SDS011;63488;48.092;-1.640;2023-08-30T09:13:17;4.22;;;1.60;;
74926;SDS011;63488;48.092;-1.640;2023-08-30T09:15:43;7.20;;;1.58;;
74926;SDS011;63488;48.092;-1.640;2023-08-30T09:18:18;4.70;;;1.70;;
74926;SDS011;63488;48.092;-1.640;2023-08-30T09:20:44;9.45;;;1.80;;
74926;SDS011;63488;48.092;-1.640;2023-08-30T09:23:22;4.03;;;1.80;;
74926;SDS011;63488;48.092;-1.640;2023-08-30T09:25:54;4.40;;;1.38;;
74926;SDS011;63488;48.092;-1.640;2023-08-30T09:28:21;3.90;;;1.45;;
74926;SDS011;63488;48.092;-1.640;2023-08-30T09:30:52;5.65;;;1.30;;
74926;SDS011;63488;48.092;-1.640;2023-08-30T09:33:29;6.85;;;1.40;;
74926;SDS011;63488;48.092;-1.640;2023-08-30T09:35:57;4.27;;;1.23;;
74926;SDS011;63488;48.092;-1.640;2023-08-30T09:38:23;4.47;;;1.52;;
74926;SDS011;63488;48.092;-1.640;2023-08-30T09:40:48;5.60;;;1.50;;
74926;SDS011;63488;48.092;-1.640;2023-08-30T09:43:17;4.35;;;1.55;;
74926;SDS011;63488;48.092;-1.640;2023-08-30T09:45:43;4.10;;;1.53;;
74926;SDS011;63488;48.092;-1.640;2023-08-30T09:48:09;7.10;;;2.25;;
74926;SDS011;63488;48.092;-1.640;2023-08-30T09:50:34;5.43;;;1.40;;
74926;SDS011;63488;48.092;-1.640;2023-08-30T09:53:06;6.05;;;1.40;;
74926;SDS011;63488;48.092;-1.640;2023-08-30T09:55:33;5.13;;;1.45;;
74926;SDS011;63488;48.092;-1.640;2023-08-30T09:57:58;3.35;;;1.10;;
74926;SDS011;63488;48.092;-1.640;2023-08-30T10:00:24;4.63;;;1.30;;
74926;SDS011;63488;48.092;-1.640;2023-08-30T10:02:50;5.03;;;1.30;;
74926;SDS011;63488;48.092;-1.640;2023-08-30T10:05:15;6.32;;;1.70;;
74926;SDS011;63488;48.092;-1.640;2023-08-30T10:07:41;7.60;;;1.40;;
74926;SDS011;63488;48.092;-1.640;2023-08-30T10:10:08;4.70;;;1.60;;
74926;SDS011;63488;48.092;-1.640;2023-08-30T10:12:35;7.18;;;2.35;;
74926;SDS011;63488;48.092;-1.640;2023-08-30T10:15:01;4.82;;;1.42;;
74926;SDS011;63488;48.092;-1.640;2023-08-30T10:17:35;5.93;;;1.40;;
74926;SDS011;63488;48.092;-1.640;2023-08-30T10:20:04;4.47;;;1.50;;
74926;SDS011;63488;48.092;-1.640;2023-08-30T10:22:29;4.75;;;1.40;;
74926;SDS011;63488;48.092;-1.640;2023-08-30T10:24:59;4.80;;;1.80;;
74926;SDS011;63488;48.092;-1.640;2023-08-30T10:27:26;5.05;;;1.30;;
74926;SDS011;63488;48.092;-1.640;2023-08-30T10:29:52;4.78;;;1.33;;
74926;SDS011;63488;48.092;-1.640;2023-08-30T10:32:21;6.20;;;1.77;;
74926;SDS011;63488;48.092;-1.640;2023-08-30T10:34:50;4.07;;;1.38;;
74926;SDS011;63488;48.092;-1.640;2023-08-30T10:37:15;6.13;;;1.35;;
74926;SDS011;63488;48.092;-1.640;2023-08-30T10:39:43;5.60;;;1.23;;
74926;SDS011;63488;48.092;-1.640;2023-08-30T10:42:15;6.25;;;1.60;;
74926;SDS011;63488;48.092;-1.640;2023-08-30T10:44:58;4.72;;;1.48;;
74926;SDS011;63488;48.092;-1.640;2023-08-30T10:47:29;6.07;;;1.60;;
74926;SDS011;63488;48.092;-1.640;2023-08-30T10:49:57;4.75;;;1.42;;
74926;SDS011;63488;48.092;-1.640;2023-08-30T10:52:24;6.97;;;1.60;;
74926;SDS011;63488;48.092;-1.640;2023-08-30T10:54:51;5.30;;;1.60;;
74926;SDS011;63488;48.092;-1.640;2023-08-30T10:57:24;5.25;;;1.58;;
74926;SDS011;63488;48.092;-1.640;2023-08-30T11:02:34;7.28;;;1.48;;
74926;SDS011;63488;48.092;-1.640;2023-08-30T11:05:00;7.00;;;1.50;;
74926;SDS011;63488;48.092;-1.640;2023-08-30T11:07:27;8.32;;;1.75;;
74926;SDS011;63488;48.092;-1.640;2023-08-30T11:09:52;6.68;;;1.55;;
74926;SDS011;63488;48.092;-1.640;2023-08-30T11:12:18;10.75;;;2.20;;
74926;SDS011;63488;48.092;-1.640;2023-08-30T11:14:47;6.18;;;1.35;;
74926;SDS011;63488;48.092;-1.640;2023-08-30T11:17:12;7.10;;;1.70;;
74926;SDS011;63488;48.092;-1.640;2023-08-30T11:19:37;9.05;;;1.65;;
74926;SDS011;63488;48.092;-1.640;2023-08-30T11:22:03;10.35;;;1.80;;
74926;SDS011;63488;48.092;-1.640;2023-08-30T11:24:28;9.10;;;2.03;;
74926;SDS011;63488;48.092;-1.640;2023-08-30T11:26:54;6.28;;;1.60;;
74926;SDS011;63488;48.092;-1.640;2023-08-30T11:29:19;5.47;;;1.50;;
74926;SDS011;63488;48.092;-1.640;2023-08-30T11:31:45;7.13;;;1.40;;
74926;SDS011;63488;48.092;-1.640;2023-08-30T11:34:12;5.20;;;1.50;;
74926;SDS011;63488;48.092;-1.640;2023-08-30T11:36:37;3.95;;;1.50;;
74926;SDS011;63488;48.092;-1.640;2023-08-30T11:39:03;8.27;;;1.75;;
74926;SDS011;63488;48.092;-1.640;2023-08-30T11:41:29;6.95;;;1.70;;
74926;SDS011;63488;48.092;-1.640;2023-08-30T11:43:54;5.13;;;1.85;;
74926;SDS011;63488;48.092;-1.640;2023-08-30T11:46:20;6.55;;;1.50;;
74926;SDS011;63488;48.092;-1.640;2023-08-30T11:48:47;7.65;;;1.80;;
74926;SDS011;63488;48.092;-1.640;2023-08-30T11:51:12;6.43;;;1.92;;
74926;SDS011;63488;48.092;-1.640;2023-08-30T11:53:38;8.57;;;2.10;;
74926;SDS011;63488;48.092;-1.640;2023-08-30T11:56:07;7.50;;;1.67;;
74926;SDS011;63488;48.092;-1.640;2023-08-30T11:58:36;7.55;;;1.63;;
74926;SDS011;63488;48.092;-1.640;2023-08-30T12:01:02;4.70;;;1.52;;
74926;SDS011;63488;48.092;-1.640;2023-08-30T12:03:28;7.10;;;1.80;;
74926;SDS011;63488;48.092;-1.640;2023-08-30T12:05:56;7.78;;;2.17;;
74926;SDS011;63488;48.092;-1.640;2023-08-30T12:08:25;7.70;;;2.20;;
74926;SDS011;63488;48.092;-1.640;2023-08-30T12:10:51;9.07;;;2.17;;
74926;SDS011;63488;48.092;-1.640;2023-08-30T12:13:26;10.10;;;2.00;;
74926;SDS011;63488;48.092;-1.640;2023-08-30T12:15:51;7.93;;;2.05;;
74926;SDS011;63488;48.092;-1.640;2023-08-30T12:18:20;7.43;;;2.08;;
74926;SDS011;63488;48.092;-1.640;2023-08-30T12:20:52;7.03;;;2.03;;
74926;SDS011;63488;48.092;-1.640;2023-08-30T12:23:22;8.32;;;2.53;;
74926;SDS011;63488;48.092;-1.640;2023-08-30T12:25:57;6.65;;;1.70;;
74926;SDS011;63488;48.092;-1.640;2023-08-30T12:28:24;7.82;;;1.90;;
74926;SDS011;63488;48.092;-1.640;2023-08-30T12:30:49;6.55;;;1.80;;
74926;SDS011;63488;48.092;-1.640;2023-08-30T12:33:18;9.85;;;2.10;;
74926;SDS011;63488;48.092;-1.640;2023-08-30T12:35:45;5.90;;;1.70;;
74926;SDS011;63488;48.092;-1.640;2023-08-30T12:38:11;8.05;;;1.65;;
74926;SDS011;63488;48.092;-1.640;2023-08-30T12:40:47;6.93;;;1.80;;
74926;SDS011;63488;48.092;-1.640;2023-08-30T12:43:14;8.30;;;2.22;;
74926;SDS011;63488;48.092;-1.640;2023-08-30T12:45:40;8.50;;;1.80;;
74926;SDS011;63488;48.092;-1.640;2023-08-30T12:48:06;8.82;;;1.77;;
74926;SDS011;63488;48.092;-1.640;2023-08-30T12:50:31;8.25;;;2.13;;
74926;SDS011;63488;48.092;-1.640;2023-08-30T12:52:57;7.15;;;2.35;;
74926;SDS011;63488;48.092;-1.640;2023-08-30T12:55:22;9.68;;;1.90;;
74926;SDS011;63488;48.092;-1.640;2023-08-30T12:57:48;8.73;;;1.90;;
74926;SDS011;63488;48.092;-1.640;2023-08-30T13:00:13;7.10;;;2.00;;
74926;SDS011;63488;48.092;-1.640;2023-08-30T13:02:39;7.28;;;1.60;;
74926;SDS011;63488;48.092;-1.640;2023-08-30T13:05:05;8.10;;;1.75;;
74926;SDS011;63488;48.092;-1.640;2023-08-30T13:07:32;7.45;;;1.80;;
74926;SDS011;63488;48.092;-1.640;2023-08-30T13:09:57;10.27;;;2.08;;
74926;SDS011;63488;48.092;-1.640;2023-08-30T13:12:22;12.88;;;1.80;;
74926;SDS011;63488;48.092;-1.640;2023-08-30T13:14:48;7.78;;;1.80;;
74926;SDS011;63488;48.092;-1.640;2023-08-30T13:17:13;5.75;;;1.67;;
74926;SDS011;63488;48.092;-1.640;2023-08-30T13:19:39;9.18;;;1.80;;
74926;SDS011;63488;48.092;-1.640;2023-08-30T13:22:05;7.38;;;1.70;;
74926;SDS011;63488;48.092;-1.640;2023-08-30T13:24:30;7.68;;;1.63;;
74926;SDS011;63488;48.092;-1.640;2023-08-30T13:26:57;7.15;;;1.90;;
74926;SDS011;63488;48.092;-1.640;2023-08-30T13:29:23;8.05;;;1.55;;
74926;SDS011;63488;48.092;-1.640;2023-08-30T13:31:48;5.60;;;1.50;;
74926;SDS011;63488;48.092;-1.640;2023-08-30T13:34:13;9.82;;;1.80;;
74926;SDS011;63488;48.092;-1.640;2023-08-30T13:36:39;7.55;;;1.65;;
74926;SDS011;63488;48.092;-1.640;2023-08-30T13:39:04;9.30;;;1.92;;
74926;SDS011;63488;48.092;-1.640;2023-08-30T13:41:30;7.00;;;1.50;;
74926;SDS011;63488;48.092;-1.640;2023-08-30T13:43:55;12.00;;;2.42;;
74926;SDS011;63488;48.092;-1.640;2023-08-30T13:46:20;8.07;;;2.33;;
74926;SDS011;63488;48.092;-1.640;2023-08-30T13:48:46;12.60;;;2.50;;
74926;SDS011;63488;48.092;-1.640;2023-08-30T13:51:13;7.47;;;1.65;;
74926;SDS011;63488;48.092;-1.640;2023-08-30T13:53:38;10.57;;;2.55;;
74926;SDS011;63488;48.092;-1.640;2023-08-30T13:56:04;7.32;;;1.92;;
74926;SDS011;63488;48.092;-1.640;2023-08-30T13:58:29;8.38;;;1.77;;
74926;SDS011;63488;48.092;-1.640;2023-08-30T14:00:54;8.35;;;2.00;;
74926;SDS011;63488;48.092;-1.640;2023-08-30T14:03:20;6.75;;;1.63;;
74926;SDS011;63488;48.092;-1.640;2023-08-30T14:05:46;10.43;;;2.10;;
74926;SDS011;63488;48.092;-1.640;2023-08-30T14:08:11;6.10;;;1.90;;
74926;SDS011;63488;48.092;-1.640;2023-08-30T14:10:37;7.88;;;1.70;;
74926;SDS011;63488;48.092;-1.640;2023-08-30T14:13:03;8.27;;;1.77;;
74926;SDS011;63488;48.092;-1.640;2023-08-30T14:15:30;7.75;;;1.60;;
74926;SDS011;63488;48.092;-1.640;2023-08-30T14:17:55;6.68;;;1.52;;
74926;SDS011;63488;48.092;-1.640;2023-08-30T14:20:20;9.93;;;2.00;;
74926;SDS011;63488;48.092;-1.640;2023-08-30T14:22:46;7.00;;;1.80;;
74926;SDS011;63488;48.092;-1.640;2023-08-30T14:25:11;8.55;;;1.83;;
74926;SDS011;63488;48.092;-1.640;2023-08-30T14:27:38;8.57;;;1.90;;
74926;SDS011;63488;48.092;-1.640;2023-08-30T14:30:04;11.68;;;2.08;;
74926;SDS011;63488;48.092;-1.640;2023-08-30T14:32:29;7.25;;;1.85;;